Time;durP1;ratioP1;P1;durP2;ratioP2;P2;SDS_P1;SDS_P2;PMS_P1;PMS_P2;Temp;Humidity;BMP_temperature;BMP_pressure;BME280_temperature;BME280_humidity;BME280_pressure;Samples;Min_cycle;Max_cycle;Signal;HPM_P1;HPM_P2
2024/01/18 00:01:32;;;;;;;25.77;21.52;;;;;;;-1.69;100.00;99295.38;5071158;28;20025;-81
2024/01/18 00:03:58;;;;;;;26.45;22.20;;;;;;;-1.66;100.00;99292.66;5078021;28;20031;-81
2024/01/18 00:06:24;;;;;;;27.80;23.33;;;;;;;-1.66;100.00;99292.66;5089624;28;20039;-81
2024/01/18 00:08:49;;;;;;;27.23;22.23;;;;;;;-1.69;100.00;99300.53;5089366;28;20039;-81
2024/01/18 00:11:15;;;;;;;27.15;22.95;;;;;;;-1.66;100.00;99308.13;5091193;28;20596;-75
2024/01/18 00:13:41;;;;;;;28.45;23.83;;;;;;;-1.69;100.00;99311.69;5109281;28;20433;-76
2024/01/18 00:16:09;;;;;;;28.33;23.60;;;;;;;-1.69;100.00;99310.84;5098760;28;20034;-81
2024/01/18 00:18:35;;;;;;;28.17;23.20;;;;;;;-1.71;100.00;99308.34;5094749;28;20039;-81
2024/01/18 00:21:00;;;;;;;25.85;23.05;;;;;;;-1.69;100.00;99321.16;5107717;28;20015;-81
2024/01/18 00:23:25;;;;;;;27.83;23.33;;;;;;;-1.72;100.00;99334.22;5094238;28;20365;-81
2024/01/18 00:25:54;;;;;;;32.92;23.25;;;;;;;-1.73;100.00;99335.94;5097549;28;20031;-81
2024/01/18 00:28:19;;;;;;;28.25;23.20;;;;;;;-1.70;100.00;99332.38;5098580;28;20032;-81
2024/01/18 00:30:45;;;;;;;29.02;22.50;;;;;;;-1.71;100.00;99325.56;5080569;28;20092;-81
2024/01/18 00:33:10;;;;;;;26.10;22.83;;;;;;;-1.74;100.00;99330.88;5109158;28;20118;-80
2024/01/18 00:35:35;;;;;;;27.63;22.75;;;;;;;-1.74;100.00;99323.97;5092972;28;20031;-81
2024/01/18 00:38:01;;;;;;;28.08;23.00;;;;;;;-1.73;100.00;99337.69;5092381;28;20019;-80
2024/01/18 00:40:26;;;;;;;27.23;22.80;;;;;;;-1.72;100.00;99326.47;5093236;28;20032;-81
2024/01/18 00:42:55;;;;;;;25.77;22.63;;;;;;;-1.74;100.00;99338.59;5110047;28;20475;-75
2024/01/18 00:45:20;;;;;;;27.20;23.67;;;;;;;-1.76;100.00;99333.53;5109958;28;20028;-75
2024/01/18 00:47:45;;;;;;;27.02;22.98;;;;;;;-1.78;100.00;99330.19;5105415;28;20052;-75
2024/01/18 00:50:11;;;;;;;20.75;9.90;;;;;;;-1.62;100.00;99335.44;5095958;28;20820;-75
2024/01/18 00:52:39;;;;;;;18.20;9.50;;;;;;;-1.59;100.00;99355.94;5091271;28;20395;-75
2024/01/18 00:55:05;;;;;;;25.90;23.10;;;;;;;-1.74;100.00;99354.91;5108413;28;20484;-75
2024/01/18 00:57:30;;;;;;;28.00;23.70;;;;;;;-1.77;100.00;99354.22;5090086;28;20033;-75
2024/01/18 00:59:56;;;;;;;27.45;22.90;;;;;;;-1.76;100.00;99363.63;5107245;28;20512;-82
2024/01/18 01:02:21;;;;;;;28.83;23.80;;;;;;;-1.73;100.00;99353.16;5107790;28;20391;-80
2024/01/18 01:04:46;;;;;;;29.00;23.92;;;;;;;-1.75;100.00;99362.72;5092781;28;20036;-81
2024/01/18 01:07:12;;;;;;;29.67;23.80;;;;;;;-1.76;100.00;99355.88;5107720;28;20030;-81
2024/01/18 01:09:37;;;;;;;29.02;22.98;;;;;;;-1.75;100.00;99355.81;5105854;28;20048;-80
2024/01/18 01:12:03;;;;;;;26.30;23.45;;;;;;;-1.77;100.00;99356.78;5099295;28;20124;-80
2024/01/18 01:14:28;;;;;;;27.30;24.08;;;;;;;-1.80;100.00;99356.94;5104463;28;20099;-81
2024/01/18 01:16:53;;;;;;;27.20;23.15;;;;;;;-1.82;100.00;99364.75;5107793;28;20030;-81
2024/01/18 01:19:19;;;;;;;27.30;23.13;;;;;;;-1.82;100.00;99358.75;5075267;28;20035;-81
2024/01/18 01:21:44;;;;;;;27.63;23.70;;;;;;;-1.84;100.00;99365.72;5097508;28;20128;-81
2024/01/18 01:24:10;;;;;;;28.70;23.83;;;;;;;-1.86;100.00;99367.53;5106790;28;20057;-81
2024/01/18 01:26:35;;;;;;;28.13;23.00;;;;;;;-1.85;100.00;99371.78;5093630;28;20042;-81
2024/01/18 01:29:00;;;;;;;29.20;23.75;;;;;;;-1.85;100.00;99371.78;5081809;28;20079;-76
2024/01/18 01:31:26;;;;;;;27.58;22.70;;;;;;;-1.86;100.00;99375.28;5096986;28;20038;-76
2024/01/18 01:33:54;;;;;;;27.23;23.58;;;;;;;-1.84;100.00;99376.03;5107815;28;20022;-76
2024/01/18 01:36:19;;;;;;;28.13;24.23;;;;;;;-1.87;100.00;99391.66;5093102;28;20035;-76
2024/01/18 01:38:45;;;;;;;29.67;24.23;;;;;;;-1.88;100.00;99395.13;5071281;28;20023;-74
2024/01/18 01:41:10;;;;;;;29.92;24.30;;;;;;;-1.86;100.00;99395.91;5088914;28;20353;-76
2024/01/18 01:43:36;;;;;;;28.63;23.67;;;;;;;-1.87;100.00;99401.97;5089931;28;20028;-76
2024/01/18 01:46:01;;;;;;;28.30;24.30;;;;;;;-1.90;100.00;99393.47;5095457;28;20467;-76
2024/01/18 01:48:26;;;;;;;25.90;22.98;;;;;;;-1.88;100.00;99402.88;5109898;28;20115;-76
2024/01/18 01:50:52;;;;;;;29.27;24.08;;;;;;;-1.90;100.00;99400.34;5109225;28;20466;-76
2024/01/18 01:53:20;;;;;;;27.70;23.65;;;;;;;-1.92;100.00;99404.75;5108737;28;20048;-76
2024/01/18 01:55:46;;;;;;;27.52;24.45;;;;;;;-1.91;100.00;99404.69;5106179;28;20020;-76
2024/01/18 01:58:15;;;;;;;27.52;23.85;;;;;;;-1.96;100.00;99406.63;5087032;28;20032;-76
2024/01/18 02:00:42;;;;;;;27.27;24.38;;;;;;;-1.95;100.00;99408.31;5073199;28;20024;-76
2024/01/18 02:03:08;;;;;;;29.77;23.85;;;;;;;-1.98;100.00;99405.88;5076429;28;20372;-76
2024/01/18 02:05:34;;;;;;;28.55;24.83;;;;;;;-1.98;100.00;99413.59;5104780;28;20038;-76
2024/01/18 02:07:59;;;;;;;29.20;24.38;;;;;;;-2.01;100.00;99408.56;5097942;28;20035;-77
2024/01/18 02:10:24;;;;;;;33.10;25.27;;;;;;;-2.01;100.00;99402.56;5106997;28;20024;-76
2024/01/18 02:12:51;;;;;;;27.55;23.63;;;;;;;-2.00;100.00;99401.66;5059555;28;20523;-76
2024/01/18 02:15:16;;;;;;;30.30;25.17;;;;;;;-2.01;100.00;99403.41;5044831;28;20044;-76
2024/01/18 02:17:43;;;;;;;29.23;25.08;;;;;;;-2.01;100.00;99400.84;5054146;28;20021;-75
2024/01/18 02:20:09;;;;;;;32.67;25.35;;;;;;;-2.01;100.00;99400.84;5058384;28;20021;-75
2024/01/18 02:22:40;;;;;;;29.02;24.05;;;;;;;-2.03;100.00;99407.81;5058720;28;20051;-75
2024/01/18 02:25:14;;;;;;;31.45;24.60;;;;;;;-2.03;100.00;99402.66;5064281;28;20056;-75
2024/01/18 02:27:39;;;;;;;30.92;24.13;;;;;;;-2.06;100.00;99397.63;5068684;28;20036;-75
2024/01/18 02:30:06;;;;;;;29.40;25.15;;;;;;;-2.06;100.00;99394.22;5055228;28;20027;-75
2024/01/18 02:32:31;;;;;;;31.52;25.27;;;;;;;-2.03;100.00;99400.06;5050591;28;20110;-75
2024/01/18 02:34:56;;;;;;;31.60;24.55;;;;;;;-2.06;100.00;99407.09;5068496;28;20060;-75
2024/01/18 02:37:22;;;;;;;33.65;24.45;;;;;;;-2.05;100.00;99408.78;5058784;28;20112;-75
2024/01/18 02:39:48;;;;;;;28.05;24.13;;;;;;;-2.05;100.00;99413.94;5063167;28;20082;-75
2024/01/18 02:42:13;;;;;;;28.45;25.05;;;;;;;-2.07;100.00;99411.41;5062672;28;20686;-76
2024/01/18 02:44:39;;;;;;;27.15;24.25;;;;;;;-2.09;100.00;99408.09;5055131;28;20025;-76
2024/01/18 02:47:05;;;;;;;27.40;23.63;;;;;;;-2.06;100.00;99407.94;5067687;28;20047;-75
2024/01/18 02:49:30;;;;;;;31.88;25.20;;;;;;;-2.11;100.00;99415.03;5070588;28;20036;-75
2024/01/18 02:51:56;;;;;;;32.78;25.27;;;;;;;-2.14;100.00;99412.63;5070967;28;20028;-81
2024/01/18 02:54:21;;;;;;;31.02;25.75;;;;;;;-2.12;100.00;99413.38;5063789;28;20017;-75
2024/01/18 02:56:46;;;;;;;32.22;25.60;;;;;;;-2.11;100.00;99414.22;5058013;28;20082;-75
2024/01/18 02:59:11;;;;;;;29.00;25.35;;;;;;;-2.09;100.00;99408.09;5067840;28;20029;-75
2024/01/18 03:01:37;;;;;;;30.85;26.33;;;;;;;-2.07;100.00;99426.03;5061950;28;20108;-75
2024/01/18 03:04:02;;;;;;;34.25;26.65;;;;;;;-2.14;100.00;99424.66;5066164;28;20086;-76
2024/01/18 03:06:28;;;;;;;34.35;25.50;;;;;;;-2.12;100.00;99428.00;5069484;28;20020;-76
2024/01/18 03:08:53;;;;;;;31.85;26.08;;;;;;;-2.11;100.00;99427.09;5067509;28;20032;-76
2024/01/18 03:11:18;;;;;;;31.73;25.65;;;;;;;-2.15;100.00;99423.81;5061802;28;20458;-76
2024/01/18 03:13:44;;;;;;;21.02;11.27;;;;;;;-2.00;100.00;99424.84;5087272;28;20039;-76
2024/01/18 03:16:11;;;;;;;20.42;9.50;;;;;;;-1.98;100.00;99429.06;5072989;28;20442;-76
2024/01/18 03:18:37;;;;;;;30.35;25.08;;;;;;;-2.12;100.00;99426.25;5103725;28;20369;-76
2024/01/18 03:21:06;;;;;;;30.70;25.15;;;;;;;-2.15;100.00;99439.28;5087188;28;20126;-76
2024/01/18 03:23:31;;;;;;;30.42;25.73;;;;;;;-2.12;100.00;99439.13;5080715;28;20040;-75
2024/01/18 03:25:56;;;;;;;31.73;25.65;;;;;;;-2.14;100.00;99433.22;5093357;28;20566;-75
2024/01/18 03:28:21;;;;;;;30.63;25.00;;;;;;;-2.15;100.00;99430.72;5075833;28;20469;-76
2024/01/18 03:30:50;;;;;;;31.75;25.52;;;;;;;-2.16;100.00;99444.50;5090067;28;20051;-76
2024/01/18 03:33:16;;;;;;;31.10;26.10;;;;;;;-2.17;100.00;99438.50;5067698;28;20535;-77
2024/01/18 03:35:42;;;;;;;30.02;25.15;;;;;;;-2.17;100.00;99441.09;5069039;28;20562;-76
2024/01/18 03:38:08;;;;;;;31.90;25.10;;;;;;;-2.18;100.00;99434.25;5074785;28;20027;-76
2024/01/18 03:40:33;;;;;;;31.80;24.70;;;;;;;-2.24;100.00;99431.97;5090029;28;20027;-76
2024/01/18 03:42:59;;;;;;;30.52;25.08;;;;;;;-2.25;100.00;99438.03;5089760;28;20024;-77
2024/01/18 03:45:24;;;;;;;29.52;25.10;;;;;;;-2.24;100.00;99445.69;5087847;28;20159;-76
2024/01/18 03:47:50;;;;;;;27.88;24.35;;;;;;;-2.26;100.00;99442.34;5088392;28;20035;-82
2024/01/18 03:50:16;;;;;;;26.88;24.13;;;;;;;-2.29;100.00;99441.63;5087837;28;20032;-82
2024/01/18 03:52:41;;;;;;;30.40;24.67;;;;;;;-2.25;100.00;99454.31;5089329;28;20027;-80
2024/01/18 03:55:07;;;;;;;28.02;24.85;;;;;;;-2.27;100.00;99463.00;5084601;28;20789;-82
2024/01/18 03:57:32;;;;;;;26.92;24.00;;;;;;;-2.30;100.00;99464.00;5070384;28;20025;-82
2024/01/18 03:59:57;;;;;;;32.90;26.08;;;;;;;-2.31;100.00;99459.75;5076940;28;20020;-82
2024/01/18 04:02:23;;;;;;;31.70;25.00;;;;;;;-2.38;100.00;99467.81;5071622;28;20028;-82
2024/01/18 04:04:48;;;;;;;29.50;25.15;;;;;;;-2.33;100.00;99477.00;5070998;28;20060;-83
2024/01/18 04:07:15;;;;;;;29.55;24.85;;;;;;;-2.36;100.00;99468.56;5083222;28;20031;-82
2024/01/18 04:09:40;;;;;;;31.08;25.25;;;;;;;-2.37;100.00;99464.31;5085870;28;20108;-82
2024/01/18 04:12:08;;;;;;;20.17;9.70;;;;;;;-2.24;100.00;99475.75;5097585;28;20089;-82
2024/01/18 04:14:34;;;;;;;19.63;8.88;;;;;;;-2.24;100.00;99465.44;5100152;28;20090;-82
2024/01/18 04:16:59;;;;;;;20.38;10.13;;;;;;;-2.26;100.00;99468.09;5094808;28;20024;-82
2024/01/18 04:19:25;;;;;;;28.50;22.45;;;;;;;-2.43;100.00;99470.56;5073436;28;20036;-82
2024/01/18 04:21:50;;;;;;;26.60;22.88;;;;;;;-2.49;100.00;99469.97;5072561;28;20036;-83
2024/01/18 04:24:16;;;;;;;28.42;23.42;;;;;;;-2.62;100.00;99470.50;5093046;28;20093;-82
2024/01/18 04:26:41;;;;;;;27.20;22.38;;;;;;;-2.59;100.00;99474.69;5109333;28;20145;-82
2024/01/18 04:29:07;;;;;;;33.30;23.50;;;;;;;-2.65;100.00;99475.78;5085937;28;20047;-82
2024/01/18 04:31:33;;;;;;;27.52;22.77;;;;;;;-2.67;100.00;99475.03;5097741;28;20027;-82
2024/01/18 04:33:59;;;;;;;32.15;23.83;;;;;;;-2.69;100.00;99483.72;5089864;28;20019;-82
2024/01/18 04:36:24;;;;;;;29.67;23.73;;;;;;;-2.70;100.00;99477.72;5109593;28;20110;-82
2024/01/18 04:38:50;;;;;;;30.00;22.77;;;;;;;-2.73;100.00;99483.00;5103677;28;20395;-82
2024/01/18 04:41:15;;;;;;;25.50;22.58;;;;;;;-2.76;100.00;99493.44;5093027;28;20537;-82
2024/01/18 04:43:41;;;;;;;29.95;22.67;;;;;;;-2.77;100.00;99496.91;5107544;28;20028;-82
2024/01/18 04:46:10;;;;;;;26.20;22.13;;;;;;;-2.84;100.00;99506.59;5108349;28;20047;-82
2024/01/18 04:48:39;;;;;;;26.00;22.35;;;;;;;-2.83;100.00;99513.41;5105062;28;20099;-82
2024/01/18 04:51:05;;;;;;;26.08;22.58;;;;;;;-2.89;100.00;99513.66;5073711;28;20023;-82
2024/01/18 04:53:30;;;;;;;30.08;22.35;;;;;;;-2.85;100.00;99519.53;5107979;28;20027;-82
2024/01/18 04:55:56;;;;;;;26.08;22.67;;;;;;;-2.95;100.00;99518.22;5076223;28;20248;-82
2024/01/18 04:58:21;;;;;;;17.02;9.02;;;;;;;-2.80;100.00;99527.91;5089409;28;20032;-82
2024/01/18 05:00:50;;;;;;;16.02;8.85;;;;;;;-2.81;100.00;99533.94;5106155;28;20032;-82
2024/01/18 05:03:15;;;;;;;26.17;21.70;;;;;;;-3.01;100.00;99534.75;5097684;28;20028;-82
2024/01/18 05:05:41;;;;;;;27.02;22.27;;;;;;;-3.07;100.00;99544.44;5091975;28;20030;-82
2024/01/18 05:08:07;;;;;;;25.48;21.25;;;;;;;-3.11;100.00;99541.16;5083416;28;20472;-82
2024/01/18 05:10:32;;;;;;;14.32;8.32;;;;;;;-2.97;100.00;99543.19;5102641;28;20039;-82
2024/01/18 05:12:58;;;;;;;16.58;7.82;;;;;;;-3.00;100.00;99541.56;5107305;28;20386;-82
2024/01/18 05:15:25;;;;;;;15.90;8.60;;;;;;;-3.04;100.00;99540.00;5109236;28;20047;-83
2024/01/18 05:17:50;;;;;;;24.40;8.77;;;;;;;-3.06;100.00;99543.53;5107854;28;20031;-82
2024/01/18 05:20:17;;;;;;;22.95;19.48;;;;;;;-3.24;100.00;99538.19;5096807;28;20027;-83
2024/01/18 05:22:43;;;;;;;26.80;20.75;;;;;;;-3.32;100.00;99534.25;5098676;28;20032;-82
2024/01/18 05:25:11;;;;;;;25.15;20.58;;;;;;;-3.37;100.00;99531.88;5099500;28;20080;-82
2024/01/18 05:27:36;;;;;;;25.27;21.02;;;;;;;-3.38;100.00;99540.47;5107651;28;20076;-82
2024/01/18 05:30:07;;;;;;;25.73;20.17;;;;;;;-3.51;100.00;99550.41;5081640;28;20071;-82
2024/01/18 05:32:32;;;;;;;19.05;8.85;;;;;;;-3.32;100.00;99545.38;5085247;28;20027;-83
2024/01/18 05:34:58;;;;;;;25.30;20.33;;;;;;;-3.57;100.00;99550.63;5107696;28;20020;-83
2024/01/18 05:37:23;;;;;;;26.83;20.95;;;;;;;-3.57;100.00;99554.94;5097059;28;20030;-82
2024/01/18 05:39:52;;;;;;;12.88;7.78;;;;;;;-3.44;100.00;99561.28;5108342;28;20032;-82
2024/01/18 05:42:22;;;;;;;12.60;6.93;;;;;;;-3.42;100.00;99563.78;5107448;28;20028;-82
2024/01/18 05:44:49;;;;;;;12.38;7.40;;;;;;;-3.43;100.00;99570.66;5108405;28;20495;-82
2024/01/18 05:47:14;;;;;;;21.83;18.92;;;;;;;-3.58;100.00;99568.69;5090956;28;20055;-82
2024/01/18 05:49:40;;;;;;;14.85;8.20;;;;;;;-3.47;100.00;99576.81;5109212;28;20051;-82
2024/01/18 05:52:06;;;;;;;26.60;20.08;;;;;;;-3.68;100.00;99582.75;5107650;28;20464;-82
2024/01/18 05:54:33;;;;;;;24.77;20.58;;;;;;;-3.67;100.00;99585.25;5080986;28;20020;-81
2024/01/18 05:56:59;;;;;;;23.38;20.27;;;;;;;-3.71;100.00;99588.81;5088055;28;20031;-81
2024/01/18 05:59:25;;;;;;;28.45;21.13;;;;;;;-3.76;100.00;99584.75;5069841;28;20719;-81
2024/01/18 06:01:50;;;;;;;25.77;21.08;;;;;;;-3.79;100.00;99596.81;5102075;28;20115;-81
2024/01/18 06:04:16;;;;;;;16.83;8.20;;;;;;;-3.65;100.00;99595.47;5086843;28;20391;-82
2024/01/18 06:06:41;;;;;;;12.73;7.45;;;;;;;-3.64;100.00;99605.69;5104025;28;20043;-82
2024/01/18 06:09:07;;;;;;;24.60;20.42;;;;;;;-3.82;100.00;99602.06;5088222;28;20489;-81
2024/01/18 06:11:32;;;;;;;25.15;19.60;;;;;;;-3.85;100.00;99601.34;5090202;28;20513;-82
2024/01/18 06:13:57;;;;;;;20.70;18.50;;;;;;;-3.86;100.00;99599.66;5104980;28;20028;-81
2024/01/18 06:16:22;;;;;;;23.10;19.48;;;;;;;-3.93;100.00;99619.59;5101503;28;20026;-82
2024/01/18 06:18:48;;;;;;;21.77;19.25;;;;;;;-3.97;100.00;99623.16;5089073;28;20109;-82
2024/01/18 06:21:13;;;;;;;23.52;18.92;;;;;;;-4.01;100.00;99631.84;5100348;28;20030;-81
2024/01/18 06:23:42;;;;;;;17.95;7.10;;;;;;;-3.87;100.00;99632.22;5104739;28;20066;-81
2024/01/18 06:26:09;;;;;;;12.48;7.45;;;;;;;-3.87;100.00;99633.94;5075443;28;20340;-81
2024/01/18 06:28:34;;;;;;;17.65;7.05;;;;;;;-3.89;100.00;99646.84;5104145;28;20102;-81
2024/01/18 06:31:00;;;;;;;13.20;6.25;;;;;;;-3.89;100.00;99646.00;5093403;28;20535;-82
2024/01/18 06:33:26;;;;;;;10.05;6.28;;;;;;;-3.91;100.00;99647.78;5089571;28;20030;-82
2024/01/18 06:35:52;;;;;;;15.60;6.93;;;;;;;-3.93;100.00;99647.84;5076587;28;20031;-82
2024/01/18 06:38:20;;;;;;;21.48;18.13;;;;;;;-4.12;100.00;99645.06;5091914;28;20374;-82
2024/01/18 06:40:46;;;;;;;12.77;6.40;;;;;;;-3.97;100.00;99656.56;5101579;28;20035;-82
2024/01/18 06:43:11;;;;;;;15.02;7.05;;;;;;;-3.98;100.00;99654.88;5090114;28;20286;-82
2024/01/18 06:45:36;;;;;;;23.75;18.90;;;;;;;-4.14;100.00;99658.84;5078369;28;20433;-82
2024/01/18 06:48:02;;;;;;;16.17;7.53;;;;;;;-4.02;100.00;99660.16;5107723;28;20027;-82
2024/01/18 06:50:27;;;;;;;22.17;18.13;;;;;;;-4.20;100.00;99661.59;5086304;28;20049;-81
2024/01/18 06:52:53;;;;;;;13.68;7.00;;;;;;;-4.06;100.00;99667.13;5084990;28;20032;-81
2024/01/18 06:55:19;;;;;;;12.05;7.22;;;;;;;-4.08;100.00;99671.47;5104213;28;20023;-81
2024/01/18 06:57:50;;;;;;;25.92;17.83;;;;;;;-4.31;100.00;99674.81;5094993;28;20093;-81
2024/01/18 07:00:19;;;;;;;17.13;8.02;;;;;;;-4.15;100.00;99690.53;5089635;28;20397;-81
2024/01/18 07:02:50;;;;;;;15.43;6.80;;;;;;;-4.16;100.00;99686.28;5102487;28;20024;-81
2024/01/18 07:05:16;;;;;;;17.45;7.40;;;;;;;-4.19;100.00;99682.09;5080091;28;20036;-82
2024/01/18 07:07:42;;;;;;;15.30;7.50;;;;;;;-4.20;100.00;99695.00;5091504;28;20143;-82
2024/01/18 07:10:07;;;;;;;15.82;7.43;;;;;;;-4.20;100.00;99690.69;5088157;28;20103;-82
2024/01/18 07:12:33;;;;;;;15.38;7.13;;;;;;;-4.21;100.00;99701.00;5085006;28;20131;-82
2024/01/18 07:14:59;;;;;;;21.85;17.73;;;;;;;-4.43;100.00;99701.69;5072705;28;20119;-82
2024/01/18 07:17:26;;;;;;;26.52;18.60;;;;;;;-4.53;100.00;99710.56;5107285;28;20027;-83
2024/01/18 07:19:52;;;;;;;13.80;7.45;;;;;;;-4.34;100.00;99704.88;5105762;28;20047;-83
2024/01/18 07:22:18;;;;;;;10.75;6.50;;;;;;;-4.34;100.00;99704.88;5079197;28;20116;-81
2024/01/18 07:24:43;;;;;;;15.23;6.97;;;;;;;-4.34;100.00;99710.84;5081088;28;20035;-81
2024/01/18 07:27:09;;;;;;;22.35;17.10;;;;;;;-4.52;100.00;99722.50;5101689;28;20042;-81
2024/01/18 07:29:39;;;;;;;15.40;7.32;;;;;;;-4.38;100.00;99713.56;5111490;28;20472;-80
2024/01/18 07:32:04;;;;;;;22.95;18.42;;;;;;;-4.55;100.00;99722.59;5091564;28;20365;-81
2024/01/18 07:34:36;;;;;;;18.65;8.63;;;;;;;-4.39;100.00;99727.28;5099126;28;20008;-81
2024/01/18 07:37:01;;;;;;;16.05;7.57;;;;;;;-4.42;100.00;99731.59;5081322;28;20487;-82
2024/01/18 07:39:30;;;;;;;13.18;7.20;;;;;;;-4.42;100.00;99734.16;5093006;28;20028;-82
2024/01/18 07:41:56;;;;;;;20.83;7.05;;;;;;;-4.42;100.00;99741.03;5073621;28;20055;-77
2024/01/18 07:44:21;;;;;;;22.27;17.38;;;;;;;-4.62;100.00;99733.94;5089019;28;20055;-81
2024/01/18 07:46:46;;;;;;;23.67;17.48;;;;;;;-4.61;100.00;99748.44;5087892;28;20107;-81
2024/01/18 07:49:12;;;;;;;14.70;7.18;;;;;;;-4.50;100.00;99748.97;5091872;28;20051;-82
2024/01/18 07:51:37;;;;;;;13.73;6.47;;;;;;;-4.50;100.00;99764.38;5091919;28;20039;-82
2024/01/18 07:54:04;;;;;;;24.80;18.00;;;;;;;-4.68;100.00;99754.66;5102080;28;20028;-82
2024/01/18 07:56:29;;;;;;;11.05;6.85;;;;;;;-4.53;100.00;99766.19;5107349;28;20042;-83
2024/01/18 07:58:55;;;;;;;9.40;5.57;;;;;;;-4.53;100.00;99772.16;5090741;28;20605;-82
2024/01/18 08:01:20;;;;;;;15.70;7.70;;;;;;;-4.54;100.00;99773.03;5095445;28;20023;-82
2024/01/18 08:03:46;;;;;;;22.80;9.35;;;;;;;-4.54;100.00;99779.91;5112782;28;20076;-82
2024/01/18 08:06:11;;;;;;;24.83;17.88;;;;;;;-4.68;100.00;99785.44;5110827;28;20039;-81
2024/01/18 08:08:37;;;;;;;27.88;19.33;;;;;;;-4.74;100.00;99789.03;5112706;28;20019;-81
2024/01/18 08:11:03;;;;;;;25.73;19.13;;;;;;;-4.72;100.00;99786.41;5109515;28;20054;-81
2024/01/18 08:13:28;;;;;;;17.88;8.90;;;;;;;-4.59;100.00;99797.16;5110335;28;20220;-82
2024/01/18 08:15:56;;;;;;;23.15;18.02;;;;;;;-4.69;100.00;99791.47;5110335;28;20089;-81
2024/01/18 08:18:23;;;;;;;23.75;18.52;;;;;;;-4.67;100.00;99799.97;5094590;28;20027;-81
2024/01/18 08:20:50;;;;;;;23.10;18.23;;;;;;;-4.63;100.00;99800.72;5104015;27;20034;-82
2024/01/18 08:23:15;;;;;;;25.00;19.00;;;;;;;-4.62;100.00;99803.22;5107616;27;20032;-81
2024/01/18 08:25:41;;;;;;;14.15;7.78;;;;;;;-4.48;100.00;99811.34;5106546;28;20407;-81
2024/01/18 08:28:13;;;;;;;29.05;19.58;;;;;;;-4.57;100.00;99813.34;5109236;28;20020;-81
2024/01/18 08:30:38;;;;;;;13.68;7.75;;;;;;;-4.41;100.00;99812.00;5110266;28;20007;-82
2024/01/18 08:33:04;;;;;;;12.68;6.93;;;;;;;-4.35;100.00;99826.41;5106791;28;20054;-81
2024/01/18 08:35:29;;;;;;;13.68;7.22;;;;;;;-4.30;100.00;99827.13;5105190;28;20403;-81
2024/01/18 08:37:54;;;;;;;22.70;18.70;;;;;;;-4.34;100.00;99834.06;5090474;28;20399;-81
2024/01/18 08:40:20;;;;;;;24.33;19.00;;;;;;;-4.31;100.00;99839.13;5108929;28;20020;-81
2024/01/18 08:42:46;;;;;;;16.73;7.15;;;;;;;-4.18;100.00;99834.44;5086709;28;20015;-81
2024/01/18 08:45:12;;;;;;;14.35;7.50;;;;;;;-4.14;100.00;99842.00;5102442;28;20407;-82
2024/01/18 08:47:39;;;;;;;14.60;7.53;;;;;;;-4.08;100.00;99843.53;5104782;28;20364;-82
2024/01/18 08:50:05;;;;;;;16.23;8.20;;;;;;;-4.03;100.00;99839.09;5085581;28;20019;-82
2024/01/18 08:52:30;;;;;;;13.40;7.50;;;;;;;-3.98;100.00;99846.69;5110505;28;20023;-82
2024/01/18 08:54:55;;;;;;;14.27;7.45;;;;;;;-3.95;100.00;99855.16;5109792;28;20089;-82
2024/01/18 08:57:21;;;;;;;28.60;7.65;;;;;;;-3.90;100.00;99860.13;5111476;28;20026;-82
2024/01/18 08:59:46;;;;;;;13.68;7.45;;;;;;;-3.86;100.00;99857.44;5102283;28;20119;-82
2024/01/18 09:02:12;;;;;;;16.73;7.57;;;;;;;-3.82;100.00;99871.84;5091756;28;20066;-82
2024/01/18 09:04:38;;;;;;;13.85;6.57;;;;;;;-3.77;100.00;99876.84;5103304;28;20028;-82
2024/01/18 09:07:03;;;;;;;23.10;17.50;;;;;;;-3.81;100.00;99877.84;5109323;28;20023;-82
2024/01/18 09:09:29;;;;;;;14.18;7.57;;;;;;;-3.69;100.00;99886.88;5108141;28;20040;-82
2024/01/18 09:11:55;;;;;;;12.98;7.15;;;;;;;-3.65;100.00;99879.03;5086666;28;20052;-82
2024/01/18 09:14:20;;;;;;;12.43;6.93;;;;;;;-3.58;100.00;99895.13;5103878;28;20060;-81
2024/01/18 09:16:45;;;;;;;16.35;7.30;;;;;;;-3.54;100.00;99891.56;5108266;28;20019;-81
2024/01/18 09:19:11;;;;;;;18.00;7.43;;;;;;;-3.49;100.00;99893.09;5091143;28;20434;-80
2024/01/18 09:21:44;;;;;;;11.57;6.05;;;;;;;-3.43;100.00;99902.34;5105812;28;20066;-81
2024/01/18 09:24:10;;;;;;;14.40;6.13;;;;;;;-3.39;100.00;99901.34;5107028;28;20019;-81
2024/01/18 09:26:35;;;;;;;13.93;6.60;;;;;;;-3.33;100.00;99906.28;5108573;28;20031;-81
2024/01/18 09:29:02;;;;;;;21.85;14.63;;;;;;;-3.35;100.00;99915.78;5098931;28;20024;-80
2024/01/18 09:31:27;;;;;;;15.25;8.68;;;;;;;-3.23;100.00;99919.69;5111252;28;20486;-82
2024/01/18 09:33:53;;;;;;;19.73;16.52;;;;;;;-3.22;100.00;99917.06;5090023;28;20023;-82
2024/01/18 09:36:18;;;;;;;16.55;7.18;;;;;;;-3.10;100.00;99930.44;5087863;28;20364;-82
2024/01/18 09:38:44;;;;;;;22.65;16.88;;;;;;;-3.10;100.00;99941.56;5105094;28;20038;-82
2024/01/18 09:41:10;;;;;;;22.67;16.73;;;;;;;-3.05;100.00;99934.53;5107871;28;20055;-82
2024/01/18 09:43:37;;;;;;;20.85;16.17;;;;;;;-2.92;100.00;99947.81;5103491;28;20111;-82
2024/01/18 09:46:08;;;;;;;22.33;14.82;;;;;;;-2.76;100.00;99956.72;5100978;28;20028;-82
2024/01/18 09:48:41;;;;;;;16.63;13.77;;;;;;;-2.76;100.00;99961.88;5086667;28;20026;-82
2024/01/18 09:51:12;;;;;;;11.93;6.10;;;;;;;-2.63;100.00;99962.28;5080231;28;20034;-82
2024/01/18 09:53:39;;;;;;;9.45;5.43;;;;;;;-2.56;100.00;99969.75;5109614;28;20077;-81
2024/01/18 09:56:28;;;;;;;8.77;5.15;;;;;;;-2.44;100.00;99968.47;5109111;28;20468;-81
2024/01/18 09:58:54;;;;;;;9.52;4.93;;;;;;;-2.35;100.00;99982.78;5099835;28;20032;-81
2024/01/18 10:01:22;;;;;;;12.55;9.85;;;;;;;-2.22;100.00;99978.88;5101807;28;20126;-82
2024/01/18 10:03:50;;;;;;;13.20;9.48;;;;;;;-2.16;100.00;99988.94;5099633;28;20536;-81
2024/01/18 10:06:19;;;;;;;14.05;8.82;;;;;;;-1.99;100.00;99994.34;5088085;28;20451;-81
2024/01/18 10:08:46;;;;;;;11.45;8.75;;;;;;;-2.02;100.00;100007.31;5098379;28;20030;-81
2024/01/18 10:11:11;;;;;;;18.10;9.00;;;;;;;-1.99;100.00;99998.66;5087860;28;20690;-81
2024/01/18 10:13:54;;;;;;;15.15;8.65;;;;;;;-1.83;100.00;100006.69;5072768;28;20077;-81
2024/01/18 10:16:29;;;;;;;12.40;8.50;;;;;;;-1.78;100.00;100012.50;5089172;28;20024;-81
2024/01/18 10:19:00;;;;;;;11.55;8.05;;;;;;;-1.69;100.00;100015.56;5091425;28;20385;-81
2024/01/18 10:21:26;;;;;;;14.70;8.30;;;;;;;-1.64;100.00;100023.97;5082013;28;20028;-81
2024/01/18 10:23:53;;;;;;;13.88;7.85;;;;;;;-1.48;100.00;100023.41;5080542;28;20074;-81
2024/01/18 10:26:19;;;;;;;10.93;7.43;;;;;;;-1.46;100.00;100014.72;5088951;28;20482;-81
2024/01/18 10:28:44;;;;;;;10.73;7.75;;;;;;;-1.36;100.00;100026.38;5106080;28;20062;-81
2024/01/18 10:31:10;;;;;;;13.02;7.47;;;;;;;-1.36;100.00;100031.53;5087926;28;20032;-81
2024/01/18 10:33:35;;;;;;;13.20;7.35;;;;;;;-1.29;100.00;100034.69;5089366;28;20020;-81
2024/01/18 10:36:01;;;;;;;13.18;7.35;;;;;;;-1.21;100.00;100036.97;5089664;28;20067;-80
2024/01/18 10:38:29;;;;;;;12.35;7.45;;;;;;;-1.06;100.00;100042.41;5089914;28;20028;-81
2024/01/18 10:40:57;;;;;;;10.18;7.85;;;;;;;-1.01;100.00;100045.66;5080590;28;20392;-81
2024/01/18 10:43:27;;;;;;;11.02;6.97;;;;;;;-0.95;100.00;100049.72;5086212;28;20028;-80
2024/01/18 10:45:53;;;;;;;11.88;7.10;;;;;;;-0.88;100.00;100045.16;5088822;28;20051;-81
2024/01/18 10:48:19;;;;;;;12.52;6.82;;;;;;;-0.85;100.00;100040.69;5090548;28;20032;-81
2024/01/18 10:50:45;;;;;;;14.73;6.80;;;;;;;-0.77;100.00;100048.16;5093778;28;20119;-82
2024/01/18 10:53:11;;;;;;;9.10;6.55;;;;;;;-0.75;100.00;100054.94;5091898;28;20384;-81
2024/01/18 10:55:36;;;;;;;11.90;6.20;;;;;;;-0.61;100.00;100048.38;5092065;28;20020;-80
2024/01/18 10:58:02;;;;;;;9.85;6.00;;;;;;;-0.54;100.00;100050.63;5083060;28;20024;-81
2024/01/18 11:00:29;;;;;;;8.93;6.10;;;;;;;-0.50;100.00;100051.34;5083823;28;20031;-81
2024/01/18 11:02:56;;;;;;;12.85;6.40;;;;;;;-0.40;100.00;100057.81;5087883;28;20024;-81
2024/01/18 11:05:23;;;;;;;10.77;6.10;;;;;;;-0.32;100.00;100068.69;5092654;28;20016;-81
2024/01/18 11:07:49;;;;;;;10.40;6.72;;;;;;;-0.25;100.00;100066.69;5094589;28;20104;-81